地図

経路データ

SID SEASON NUMBER BASIN SUBBASIN NAME ISO_TIME NATURE LAT LON WMO_WIND WMO_PRES WMO_AGENCY TRACK_TYPE DIST2LAND LANDFALL IFLAG USA_AGENCY USA_ATCF_ID USA_LAT USA_LON USA_RECORD USA_STATUS USA_WIND USA_PRES USA_SSHS USA_R34_NE USA_R34_SE USA_R34_SW USA_R34_NW USA_R50_NE USA_R50_SE USA_R50_SW USA_R50_NW USA_R64_NE USA_R64_SE USA_R64_SW USA_R64_NW USA_POCI USA_ROCI USA_RMW USA_EYE TOKYO_LAT TOKYO_LON TOKYO_GRADE TOKYO_WIND TOKYO_PRES TOKYO_R50_DIR TOKYO_R50_LONG TOKYO_R50_SHORT TOKYO_R30_DIR TOKYO_R30_LONG TOKYO_R30_SHORT TOKYO_LAND CMA_LAT CMA_LON CMA_CAT CMA_WIND CMA_PRES HKO_LAT HKO_LON HKO_CAT HKO_WIND HKO_PRES NEWDELHI_LAT NEWDELHI_LON NEWDELHI_GRADE NEWDELHI_WIND NEWDELHI_PRES NEWDELHI_CI NEWDELHI_DP NEWDELHI_POCI REUNION_LAT REUNION_LON REUNION_TYPE REUNION_WIND REUNION_PRES REUNION_TNUM REUNION_CI REUNION_RMW REUNION_R34_NE REUNION_R34_SE REUNION_R34_SW REUNION_R34_NW REUNION_R50_NE REUNION_R50_SE REUNION_R50_SW REUNION_R50_NW REUNION_R64_NE REUNION_R64_SE REUNION_R64_SW REUNION_R64_NW BOM_LAT BOM_LON BOM_TYPE BOM_WIND BOM_PRES BOM_TNUM BOM_CI BOM_RMW BOM_R34_NE BOM_R34_SE BOM_R34_SW BOM_R34_NW BOM_R50_NE BOM_R50_SE BOM_R50_SW BOM_R50_NW BOM_R64_NE BOM_R64_SE BOM_R64_SW BOM_R64_NW BOM_ROCI BOM_POCI BOM_EYE BOM_POS_METHOD BOM_PRES_METHOD NADI_LAT NADI_LON NADI_CAT NADI_WIND NADI_PRES WELLINGTON_LAT WELLINGTON_LON WELLINGTON_WIND WELLINGTON_PRES DS824_LAT DS824_LON DS824_STAGE DS824_WIND DS824_PRES TD9636_LAT TD9636_LON TD9636_STAGE TD9636_WIND TD9636_PRES TD9635_LAT TD9635_LON TD9635_WIND TD9635_PRES TD9635_ROCI NEUMANN_LAT NEUMANN_LON NEUMANN_CLASS NEUMANN_WIND NEUMANN_PRES MLC_LAT MLC_LON MLC_CLASS MLC_WIND MLC_PRES USA_GUST BOM_GUST BOM_GUST_PER REUNION_GUST REUNION_GUST_PER USA_SEAHGT USA_SEARAD_NE USA_SEARAD_SE USA_SEARAD_SW USA_SEARAD_NW STORM_SPEED STORM_DIR
1975150N09073 1975 41 NI AS NOT_NAMED 1975-05-29 12:00:00 TS 9.00000 72.5000 main 419 410 O________OO___ jtwc_io IO041975 9.00000 72.5000 -1 9.00000 72.5000 TC 25 9.00000 72.5000 1 11 345
1975150N09073 1975 41 NI AS NOT_NAMED 1975-05-29 15:00:00 TS 9.54514 72.3516 main 410 390 P________PP___ IO041975 9.54500 72.3601 -1 9.54500 72.3601 TC 25 9.54541 72.3345 1 12 344
1975150N09073 1975 41 NI AS NOT_NAMED 1975-05-29 18:00:00 TS 10.1009 72.1884 main 390 377 O________OP___ jtwc_io IO041975 10.1000 72.2000 -1 10.1000 72.2000 TC 25 10.1026 72.1651 1 12 343
1975150N09073 1975 41 NI AS NOT_NAMED 1975-05-29 21:00:00 TS 10.6795 72.0010 main 377 367 P________PP___ IO041975 10.6775 72.0074 -1 10.6775 72.0074 TC 25 10.6835 71.9881 1 13 342
1975150N09073 1975 41 NI AS NOT_NAMED 1975-05-30 00:00:00 TS 11.3000 71.8000 main 367 355 O________OO___ jtwc_io IO041975 11.3000 71.8000 -1 11.3000 71.8000 TC 25 11.3000 71.8000 1 14 343
1975150N09073 1975 41 NI AS NOT_NAMED 1975-05-30 03:00:00 TS 11.9811 71.5997 main 359 356 P________PP___ IO041975 11.9925 71.5999 -1 11.9925 71.5999 TC 25 11.9584 71.5992 1 14 344
1975150N09073 1975 41 NI AS NOT_NAMED 1975-05-30 06:00:00 TS 12.6809 71.3976 main 364 351 O________OP___ jtwc_io IO041975 12.7000 71.4000 -1 12.7000 71.4000 TC 25 12.6426 71.3927 1 14 344
1975150N09073 1975 41 NI AS NOT_NAMED 1975-05-30 09:00:00 TS 13.3534 71.1965 main 347 334 P________PP___ IO041975 13.3650 71.1999 -1 13.3650 71.1999 TC 25 13.3304 71.1898 1 14 344
1975150N09073 1975 41 NI AS NOT_NAMED 1975-05-30 12:00:00 TS 14.0000 71.0000 main 335 329 O________OO___ jtwc_io IO041975 14.0000 71.0000 -1 14.0000 71.0000 TC 25 14.0000 71.0000 1 13 342
1975150N09073 1975 41 NI AS NOT_NAMED 1975-05-30 15:00:00 TS 14.6148 70.7686 main 330 323 P________PP___ IO041975 14.6075 70.7850 -1 14.6075 70.7850 TC 25 14.6294 70.7357 1 13 341
1975150N09073 1975 41 NI AS NOT_NAMED 1975-05-30 18:00:00 TS 15.2123 70.5667 main 323 319 O________OP___ jtwc_io IO041975 15.2000 70.6000 -1 15.2000 70.6000 TC 25 15.2369 70.5003 1 13 343
1975150N09073 1975 41 NI AS NOT_NAMED 1975-05-30 21:00:00 TS 15.8136 70.3951 main 319 309 P________PP___ IO041975 15.8074 70.4105 -1 15.8074 70.4105 TC 25 15.8260 70.3645 1 12 352
1975150N09073 1975 41 NI AS NOT_NAMED 1975-05-31 00:00:00 TS 16.4000 70.4000 main 309 263 O________OO___ jtwc_io IO041975 16.4000 70.4000 -1 16.4000 70.4000 TC 25 16.4000 70.4000 1 12 14
1975150N09073 1975 41 NI AS NOT_NAMED 1975-05-31 03:00:00 TS 16.9858 70.7056 main 263 196 P________PP___ IO041975 16.9575 70.7023 -1 16.9575 70.7023 TC 25 17.0423 70.7121 1 14 33
1975150N09073 1975 41 NI AS NOT_NAMED 1975-05-31 06:00:00 TS 17.5530 71.1984 main 192 127 O________OP___ jtwc_io IO041975 17.5000 71.2000 -1 17.5000 71.2000 TC 25 17.6589 71.1952 1 15 41
1975150N09073 1975 41 NI AS NOT_NAMED 1975-05-31 09:00:00 TS 18.1287 71.7567 main 116 62 P________PP___ IO041975 18.0952 71.7570 -1 18.0952 71.7570 TC 25 18.1958 71.7561 1 15 45
1975150N09073 1975 41 NI AS NOT_NAMED 1975-05-31 12:00:00 TS 18.6000 72.3000 main 62 10 O________OO___ jtwc_io IO041975 18.6000 72.3000 -1 18.6000 72.3000 TC 25 18.6000 72.3000 1 12 49
1975150N09073 1975 41 NI AS NOT_NAMED 1975-05-31 15:00:00 TS 18.9102 72.7038 main 10 0 P________PP___ IO041975 18.9472 72.6803 -1 18.9472 72.6803 TC 25 18.8360 72.7509 1 8 58
1975150N09073 1975 41 NI AS NOT_NAMED 1975-05-31 18:00:00 TS 19.0447 73.0385 main 0 0 O________OP___ jtwc_io IO041975 19.1000 73.0000 -1 19.1000 73.0000 TC 25 18.9340 73.1156 1 6 80
1975150N09073 1975 41 NI AS NOT_NAMED 1975-05-31 21:00:00 TS 19.0168 73.3676 main 0 0 P________PP___ IO041975 19.0552 73.3401 -1 19.0552 73.3401 TC 25 18.9400 73.4224 1 6 103
1975150N09073 1975 41 NI AS NOT_NAMED 1975-06-01 00:00:00 TS 18.9000 73.7000 main 0 O________OO___ jtwc_io IO041975 18.9000 73.7000 -1 18.9000 73.7000 TC 25 18.9000 73.7000 6 7 110

IBTrACS Databaseについて

本データベースは、米国NOAAが公開する1842年以降の世界の熱帯低気圧のベストトラックデータアーカイブInternational Best Track Archive for Climate Stewardship (IBTrACS)を、ウェブで閲覧しやすい形式に変換したものです。

最終更新日:2021-11-26